sensor_id;sensor_type;location;lat;lon;timestamp;temperature;humidity
2993;DHT22;1506;48.932;9.478;2023-04-21T00:02:25;5.00;99.90
2993;DHT22;1506;48.932;9.478;2023-04-21T00:04:53;4.90;99.90
2993;DHT22;1506;48.932;9.478;2023-04-21T00:07:22;4.80;99.90
2993;DHT22;1506;48.932;9.478;2023-04-21T00:09:49;4.70;99.90
2993;DHT22;1506;48.932;9.478;2023-04-21T00:12:16;4.80;99.90
2993;DHT22;1506;48.932;9.478;2023-04-21T00:14:43;4.70;99.90
2993;DHT22;1506;48.932;9.478;2023-04-21T00:17:10;4.60;99.90
2993;DHT22;1506;48.932;9.478;2023-04-21T00:19:37;4.60;99.90
2993;DHT22;1506;48.932;9.478;2023-04-21T00:22:04;4.50;99.90
2993;DHT22;1506;48.932;9.478;2023-04-21T00:24:33;4.60;99.90
2993;DHT22;1506;48.932;9.478;2023-04-21T00:27:01;4.50;99.90
2993;DHT22;1506;48.932;9.478;2023-04-21T00:29:29;4.60;99.90
2993;DHT22;1506;48.932;9.478;2023-04-21T00:31:56;4.50;99.90
2993;DHT22;1506;48.932;9.478;2023-04-21T00:34:23;4.50;99.90
2993;DHT22;1506;48.932;9.478;2023-04-21T00:36:51;4.40;99.90
2993;DHT22;1506;48.932;9.478;2023-04-21T00:39:18;4.60;99.90
2993;DHT22;1506;48.932;9.478;2023-04-21T00:41:45;4.60;99.90
2993;DHT22;1506;48.932;9.478;2023-04-21T00:44:12;4.50;99.90
2993;DHT22;1506;48.932;9.478;2023-04-21T00:46:39;4.50;99.90
2993;DHT22;1506;48.932;9.478;2023-04-21T00:49:08;4.40;99.90
2993;DHT22;1506;48.932;9.478;2023-04-21T00:51:36;4.40;99.90
2993;DHT22;1506;48.932;9.478;2023-04-21T00:54:04;4.20;99.90
2993;DHT22;1506;48.932;9.478;2023-04-21T00:56:34;4.20;99.90
2993;DHT22;1506;48.932;9.478;2023-04-21T00:59:02;4.20;99.90
2993;DHT22;1506;48.932;9.478;2023-04-21T01:01:32;4.10;99.90
2993;DHT22;1506;48.932;9.478;2023-04-21T01:04:00;4.20;99.90
2993;DHT22;1506;48.932;9.478;2023-04-21T01:06:29;4.00;99.90
2993;DHT22;1506;48.932;9.478;2023-04-21T01:09:00;4.10;99.90
2993;DHT22;1506;48.932;9.478;2023-04-21T01:11:28;4.10;99.90
2993;DHT22;1506;48.932;9.478;2023-04-21T01:13:55;4.30;99.90
2993;DHT22;1506;48.932;9.478;2023-04-21T01:16:23;4.30;99.90
2993;DHT22;1506;48.932;9.478;2023-04-21T01:18:52;4.40;99.90
2993;DHT22;1506;48.932;9.478;2023-04-21T01:21:21;4.40;99.90
2993;DHT22;1506;48.932;9.478;2023-04-21T01:23:48;4.40;99.90
2993;DHT22;1506;48.932;9.478;2023-04-21T01:26:20;4.50;99.90
2993;DHT22;1506;48.932;9.478;2023-04-21T01:28:48;4.50;99.90
2993;DHT22;1506;48.932;9.478;2023-04-21T01:31:16;4.60;99.90
2993;DHT22;1506;48.932;9.478;2023-04-21T01:33:44;4.50;99.90
2993;DHT22;1506;48.932;9.478;2023-04-21T01:36:11;4.60;99.90
2993;DHT22;1506;48.932;9.478;2023-04-21T01:38:42;4.50;99.90
2993;DHT22;1506;48.932;9.478;2023-04-21T01:41:09;4.40;99.90
2993;DHT22;1506;48.932;9.478;2023-04-21T01:43:37;4.30;99.90
2993;DHT22;1506;48.932;9.478;2023-04-21T01:46:05;4.30;99.90
2993;DHT22;1506;48.932;9.478;2023-04-21T01:48:33;4.40;99.90
2993;DHT22;1506;48.932;9.478;2023-04-21T01:51:00;4.40;99.90
2993;DHT22;1506;48.932;9.478;2023-04-21T01:53:27;4.40;99.90
2993;DHT22;1506;48.932;9.478;2023-04-21T01:55:54;4.30;99.90
2993;DHT22;1506;48.932;9.478;2023-04-21T01:58:21;4.30;99.90
2993;DHT22;1506;48.932;9.478;2023-04-21T02:00:48;4.40;99.90
2993;DHT22;1506;48.932;9.478;2023-04-21T02:03:15;4.40;99.90
2993;DHT22;1506;48.932;9.478;2023-04-21T02:05:44;4.40;99.90
2993;DHT22;1506;48.932;9.478;2023-04-21T02:08:11;4.40;99.90
2993;DHT22;1506;48.932;9.478;2023-04-21T02:10:40;4.40;99.90
2993;DHT22;1506;48.932;9.478;2023-04-21T02:13:10;4.50;99.90
2993;DHT22;1506;48.932;9.478;2023-04-21T02:15:37;4.50;99.90
2993;DHT22;1506;48.932;9.478;2023-04-21T02:18:05;4.40;99.90
2993;DHT22;1506;48.932;9.478;2023-04-21T02:20:34;4.40;99.90
2993;DHT22;1506;48.932;9.478;2023-04-21T02:23:01;4.50;99.90
2993;DHT22;1506;48.932;9.478;2023-04-21T02:25:28;4.50;99.90
2993;DHT22;1506;48.932;9.478;2023-04-21T02:27:55;4.40;99.90
2993;DHT22;1506;48.932;9.478;2023-04-21T02:30:25;4.50;99.90
2993;DHT22;1506;48.932;9.478;2023-04-21T02:32:53;4.40;99.90
2993;DHT22;1506;48.932;9.478;2023-04-21T02:35:20;4.40;99.90
2993;DHT22;1506;48.932;9.478;2023-04-21T02:37:49;4.40;99.90
2993;DHT22;1506;48.932;9.478;2023-04-21T02:40:16;4.40;99.90
2993;DHT22;1506;48.932;9.478;2023-04-21T02:42:43;4.40;99.90
2993;DHT22;1506;48.932;9.478;2023-04-21T02:45:11;4.40;99.90
2993;DHT22;1506;48.932;9.478;2023-04-21T02:47:38;4.40;99.90
2993;DHT22;1506;48.932;9.478;2023-04-21T02:50:05;4.30;99.90
2993;DHT22;1506;48.932;9.478;2023-04-21T02:52:36;4.30;99.90
2993;DHT22;1506;48.932;9.478;2023-04-21T02:55:06;4.20;99.90
2993;DHT22;1506;48.932;9.478;2023-04-21T02:57:33;4.10;99.90
2993;DHT22;1506;48.932;9.478;2023-04-21T03:00:00;3.80;99.90
2993;DHT22;1506;48.932;9.478;2023-04-21T03:02:27;3.70;99.90
2993;DHT22;1506;48.932;9.478;2023-04-21T03:04:54;3.60;99.90
2993;DHT22;1506;48.932;9.478;2023-04-21T03:07:22;3.50;99.90
2993;DHT22;1506;48.932;9.478;2023-04-21T03:09:49;3.40;99.90
2993;DHT22;1506;48.932;9.478;2023-04-21T03:12:16;3.40;99.90
2993;DHT22;1506;48.932;9.478;2023-04-21T03:14:43;3.50;99.90
2993;DHT22;1506;48.932;9.478;2023-04-21T03:17:10;3.50;99.90
2993;DHT22;1506;48.932;9.478;2023-04-21T03:19:37;3.60;99.90
2993;DHT22;1506;48.932;9.478;2023-04-21T03:22:04;3.70;99.90
2993;DHT22;1506;48.932;9.478;2023-04-21T03:24:31;3.70;99.90
2993;DHT22;1506;48.932;9.478;2023-04-21T03:26:58;3.80;99.90
2993;DHT22;1506;48.932;9.478;2023-04-21T03:29:26;3.80;99.90
2993;DHT22;1506;48.932;9.478;2023-04-21T03:31:53;3.80;99.90
2993;DHT22;1506;48.932;9.478;2023-04-21T03:34:21;3.80;99.90
2993;DHT22;1506;48.932;9.478;2023-04-21T03:36:48;3.80;99.90
2993;DHT22;1506;48.932;9.478;2023-04-21T03:39:15;3.70;99.90
2993;DHT22;1506;48.932;9.478;2023-04-21T03:41:47;3.70;99.90
2993;DHT22;1506;48.932;9.478;2023-04-21T03:44:14;3.60;99.90
2993;DHT22;1506;48.932;9.478;2023-04-21T03:46:41;3.60;99.90
2993;DHT22;1506;48.932;9.478;2023-04-21T03:49:08;3.60;99.90
2993;DHT22;1506;48.932;9.478;2023-04-21T03:51:35;3.60;99.90
2993;DHT22;1506;48.932;9.478;2023-04-21T03:54:02;3.60;99.90
2993;DHT22;1506;48.932;9.478;2023-04-21T03:56:29;3.60;99.90
2993;DHT22;1506;48.932;9.478;2023-04-21T03:58:56;3.70;99.90
2993;DHT22;1506;48.932;9.478;2023-04-21T04:01:23;3.70;99.90
2993;DHT22;1506;48.932;9.478;2023-04-21T04:03:50;3.70;99.90
2993;DHT22;1506;48.932;9.478;2023-04-21T04:06:18;3.70;99.90
2993;DHT22;1506;48.932;9.478;2023-04-21T04:08:45;3.60;99.90
2993;DHT22;1506;48.932;9.478;2023-04-21T04:11:12;3.70;99.90
2993;DHT22;1506;48.932;9.478;2023-04-21T04:13:39;3.70;99.90
2993;DHT22;1506;48.932;9.478;2023-04-21T04:16:06;3.60;99.90
2993;DHT22;1506;48.932;9.478;2023-04-21T04:18:33;3.60;99.90
2993;DHT22;1506;48.932;9.478;2023-04-21T04:21:07;3.60;99.90
2993;DHT22;1506;48.932;9.478;2023-04-21T04:23:34;3.50;99.90
2993;DHT22;1506;48.932;9.478;2023-04-21T04:26:01;3.40;99.90
2993;DHT22;1506;48.932;9.478;2023-04-21T04:28:31;3.40;99.90
2993;DHT22;1506;48.932;9.478;2023-04-21T04:30:59;3.30;99.90
2993;DHT22;1506;48.932;9.478;2023-04-21T04:33:26;3.30;99.90
2993;DHT22;1506;48.932;9.478;2023-04-21T04:35:53;3.40;99.90
2993;DHT22;1506;48.932;9.478;2023-04-21T04:38:20;3.40;99.90
2993;DHT22;1506;48.932;9.478;2023-04-21T04:40:55;3.40;99.90
2993;DHT22;1506;48.932;9.478;2023-04-21T04:43:27;3.20;99.90
2993;DHT22;1506;48.932;9.478;2023-04-21T04:45:54;3.10;99.90
2993;DHT22;1506;48.932;9.478;2023-04-21T04:48:21;3.00;99.90
2993;DHT22;1506;48.932;9.478;2023-04-21T04:50:48;3.10;99.90
2993;DHT22;1506;48.932;9.478;2023-04-21T04:53:15;3.10;99.90
2993;DHT22;1506;48.932;9.478;2023-04-21T04:55:42;3.20;99.90
2993;DHT22;1506;48.932;9.478;2023-04-21T04:58:09;3.30;99.90
2993;DHT22;1506;48.932;9.478;2023-04-21T05:00:36;3.30;99.90
2993;DHT22;1506;48.932;9.478;2023-04-21T05:03:03;3.20;99.90
2993;DHT22;1506;48.932;9.478;2023-04-21T05:05:31;3.00;99.90
2993;DHT22;1506;48.932;9.478;2023-04-21T05:07:58;3.00;99.90
2993;DHT22;1506;48.932;9.478;2023-04-21T05:10:25;3.20;99.90
2993;DHT22;1506;48.932;9.478;2023-04-21T05:12:52;3.80;99.90
2993;DHT22;1506;48.932;9.478;2023-04-21T05:15:19;4.50;99.90
2993;DHT22;1506;48.932;9.478;2023-04-21T05:17:46;4.80;99.90
2993;DHT22;1506;48.932;9.478;2023-04-21T05:20:13;5.00;99.90
2993;DHT22;1506;48.932;9.478;2023-04-21T05:22:40;5.50;99.90
2993;DHT22;1506;48.932;9.478;2023-04-21T05:25:10;6.10;99.90
2993;DHT22;1506;48.932;9.478;2023-04-21T05:27:41;6.50;99.90
2993;DHT22;1506;48.932;9.478;2023-04-21T05:30:09;6.80;99.90
2993;DHT22;1506;48.932;9.478;2023-04-21T05:32:36;7.50;99.90
2993;DHT22;1506;48.932;9.478;2023-04-21T05:35:03;7.80;99.90
2993;DHT22;1506;48.932;9.478;2023-04-21T05:37:30;7.90;99.90
2993;DHT22;1506;48.932;9.478;2023-04-21T05:39:57;7.70;99.90
2993;DHT22;1506;48.932;9.478;2023-04-21T05:42:24;7.50;99.90
2993;DHT22;1506;48.932;9.478;2023-04-21T05:44:51;7.40;99.90
2993;DHT22;1506;48.932;9.478;2023-04-21T05:47:19;7.30;99.90
2993;DHT22;1506;48.932;9.478;2023-04-21T05:49:46;7.80;99.90
2993;DHT22;1506;48.932;9.478;2023-04-21T05:52:18;7.90;99.90
2993;DHT22;1506;48.932;9.478;2023-04-21T05:54:47;7.70;32.50
2993;DHT22;1506;48.932;9.478;2023-04-21T05:57:14;7.50;43.20
2993;DHT22;1506;48.932;9.478;2023-04-21T05:59:44;7.30;67.80
2993;DHT22;1506;48.932;9.478;2023-04-21T06:02:11;7.20;94.10
2993;DHT22;1506;48.932;9.478;2023-04-21T06:04:38;7.20;99.90
2993;DHT22;1506;48.932;9.478;2023-04-21T06:07:09;7.10;99.90
2993;DHT22;1506;48.932;9.478;2023-04-21T06:09:39;6.90;99.90
2993;DHT22;1506;48.932;9.478;2023-04-21T06:12:07;6.80;99.90
2993;DHT22;1506;48.932;9.478;2023-04-21T06:14:34;6.80;99.90
2993;DHT22;1506;48.932;9.478;2023-04-21T06:17:01;6.80;99.90
2993;DHT22;1506;48.932;9.478;2023-04-21T06:19:28;6.80;99.90
2993;DHT22;1506;48.932;9.478;2023-04-21T06:21:55;6.90;99.90
2993;DHT22;1506;48.932;9.478;2023-04-21T06:24:22;7.00;99.90
2993;DHT22;1506;48.932;9.478;2023-04-21T06:26:52;7.00;99.90
2993;DHT22;1506;48.932;9.478;2023-04-21T06:29:19;7.10;99.90
2993;DHT22;1506;48.932;9.478;2023-04-21T06:31:46;7.10;99.90
2993;DHT22;1506;48.932;9.478;2023-04-21T06:34:14;7.10;99.90
2993;DHT22;1506;48.932;9.478;2023-04-21T06:36:41;7.20;99.90
2993;DHT22;1506;48.932;9.478;2023-04-21T06:39:08;7.40;99.90
2993;DHT22;1506;48.932;9.478;2023-04-21T06:41:35;7.60;99.90
2993;DHT22;1506;48.932;9.478;2023-04-21T06:44:02;7.80;99.90
2993;DHT22;1506;48.932;9.478;2023-04-21T06:46:29;7.80;99.90
2993;DHT22;1506;48.932;9.478;2023-04-21T06:48:57;7.80;99.90
2993;DHT22;1506;48.932;9.478;2023-04-21T06:51:23;7.80;99.90
2993;DHT22;1506;48.932;9.478;2023-04-21T06:53:50;7.90;99.90
2993;DHT22;1506;48.932;9.478;2023-04-21T06:56:17;7.90;99.90
2993;DHT22;1506;48.932;9.478;2023-04-21T06:58:44;8.00;99.90
2993;DHT22;1506;48.932;9.478;2023-04-21T07:01:12;8.10;99.90
2993;DHT22;1506;48.932;9.478;2023-04-21T07:03:39;8.20;99.90
2993;DHT22;1506;48.932;9.478;2023-04-21T07:06:07;8.30;99.90
2993;DHT22;1506;48.932;9.478;2023-04-21T07:08:34;8.40;99.90
2993;DHT22;1506;48.932;9.478;2023-04-21T07:11:01;8.60;99.90
2993;DHT22;1506;48.932;9.478;2023-04-21T07:13:28;8.70;99.90
2993;DHT22;1506;48.932;9.478;2023-04-21T07:15:55;9.00;99.90
2993;DHT22;1506;48.932;9.478;2023-04-21T07:18:22;9.60;99.90
2993;DHT22;1506;48.932;9.478;2023-04-21T07:20:49;10.50;99.90
2993;DHT22;1506;48.932;9.478;2023-04-21T07:23:17;11.10;99.90
2993;DHT22;1506;48.932;9.478;2023-04-21T07:25:44;11.20;11.90
2993;DHT22;1506;48.932;9.478;2023-04-21T07:28:11;11.20;1.00
2993;DHT22;1506;48.932;9.478;2023-04-21T07:30:40;10.50;1.00
2993;DHT22;1506;48.932;9.478;2023-04-21T07:33:07;9.90;1.00
2993;DHT22;1506;48.932;9.478;2023-04-21T07:35:34;9.60;23.30
2993;DHT22;1506;48.932;9.478;2023-04-21T07:38:01;9.70;89.40
2993;DHT22;1506;48.932;9.478;2023-04-21T07:40:28;9.40;87.10
2993;DHT22;1506;48.932;9.478;2023-04-21T07:42:56;9.30;50.30
2993;DHT22;1506;48.932;9.478;2023-04-21T07:45:24;9.20;99.90
2993;DHT22;1506;48.932;9.478;2023-04-21T07:47:51;9.30;99.90
2993;DHT22;1506;48.932;9.478;2023-04-21T07:50:18;9.20;99.90
2993;DHT22;1506;48.932;9.478;2023-04-21T07:52:45;9.60;99.90
2993;DHT22;1506;48.932;9.478;2023-04-21T07:55:13;10.30;70.70
2993;DHT22;1506;48.932;9.478;2023-04-21T07:57:40;9.60;67.30
2993;DHT22;1506;48.932;9.478;2023-04-21T08:00:08;9.60;94.50
2993;DHT22;1506;48.932;9.478;2023-04-21T08:02:39;9.60;45.90
2993;DHT22;1506;48.932;9.478;2023-04-21T08:05:06;9.40;99.90
2993;DHT22;1506;48.932;9.478;2023-04-21T08:07:34;9.40;99.90
2993;DHT22;1506;48.932;9.478;2023-04-21T08:10:01;9.50;99.90
2993;DHT22;1506;48.932;9.478;2023-04-21T08:12:46;9.60;99.90
2993;DHT22;1506;48.932;9.478;2023-04-21T08:15:13;9.60;64.60
2993;DHT22;1506;48.932;9.478;2023-04-21T08:17:42;9.80;99.90
2993;DHT22;1506;48.932;9.478;2023-04-21T08:20:10;10.00;99.90
2993;DHT22;1506;48.932;9.478;2023-04-21T08:25:05;10.10;72.00
2993;DHT22;1506;48.932;9.478;2023-04-21T08:27:32;10.20;32.50
2993;DHT22;1506;48.932;9.478;2023-04-21T08:29:59;10.40;11.40
2993;DHT22;1506;48.932;9.478;2023-04-21T08:32:26;10.30;2.70
2993;DHT22;1506;48.932;9.478;2023-04-21T08:34:54;10.60;27.80
2993;DHT22;1506;48.932;9.478;2023-04-21T08:37:21;10.70;1.00
2993;DHT22;1506;48.932;9.478;2023-04-21T08:39:49;10.70;17.50
2993;DHT22;1506;48.932;9.478;2023-04-21T08:42:17;10.60;3.50
2993;DHT22;1506;48.932;9.478;2023-04-21T08:44:45;10.60;1.00
2993;DHT22;1506;48.932;9.478;2023-04-21T08:47:13;10.80;36.40
2993;DHT22;1506;48.932;9.478;2023-04-21T08:49:41;11.00;1.00
2993;DHT22;1506;48.932;9.478;2023-04-21T08:52:11;11.20;1.00
2993;DHT22;1506;48.932;9.478;2023-04-21T08:54:42;10.90;1.00
2993;DHT22;1506;48.932;9.478;2023-04-21T08:57:09;10.90;18.10
2993;DHT22;1506;48.932;9.478;2023-04-21T08:59:41;10.80;1.00
2993;DHT22;1506;48.932;9.478;2023-04-21T09:02:16;10.80;1.00
2993;DHT22;1506;48.932;9.478;2023-04-21T09:04:47;11.20;1.00
2993;DHT22;1506;48.932;9.478;2023-04-21T09:07:36;11.50;1.00
2993;DHT22;1506;48.932;9.478;2023-04-21T09:10:05;11.70;1.00
2993;DHT22;1506;48.932;9.478;2023-04-21T09:12:32;12.40;1.00
2993;DHT22;1506;48.932;9.478;2023-04-21T09:15:04;12.70;1.00
2993;DHT22;1506;48.932;9.478;2023-04-21T09:17:31;12.70;99.90
2993;DHT22;1506;48.932;9.478;2023-04-21T09:22:40;12.90;1.00
2993;DHT22;1506;48.932;9.478;2023-04-21T09:25:07;12.70;99.90
2993;DHT22;1506;48.932;9.478;2023-04-21T09:27:37;13.70;99.90
2993;DHT22;1506;48.932;9.478;2023-04-21T09:30:05;14.20;25.60
2993;DHT22;1506;48.932;9.478;2023-04-21T09:32:38;15.20;1.00
2993;DHT22;1506;48.932;9.478;2023-04-21T09:35:10;16.70;1.00
2993;DHT22;1506;48.932;9.478;2023-04-21T09:37:38;16.80;1.00
2993;DHT22;1506;48.932;9.478;2023-04-21T09:40:06;15.50;1.00
2993;DHT22;1506;48.932;9.478;2023-04-21T09:42:33;15.40;1.00
2993;DHT22;1506;48.932;9.478;2023-04-21T09:45:06;15.80;99.90
2993;DHT22;1506;48.932;9.478;2023-04-21T09:47:57;15.40;99.90
2993;DHT22;1506;48.932;9.478;2023-04-21T09:50:27;15.80;1.00
2993;DHT22;1506;48.932;9.478;2023-04-21T09:53:03;16.40;1.00
2993;DHT22;1506;48.932;9.478;2023-04-21T09:55:31;15.70;1.00
2993;DHT22;1506;48.932;9.478;2023-04-21T09:58:01;15.30;1.00
2993;DHT22;1506;48.932;9.478;2023-04-21T10:00:28;14.70;99.90
2993;DHT22;1506;48.932;9.478;2023-04-21T10:07:53;16.10;99.90
2993;DHT22;1506;48.932;9.478;2023-04-21T10:10:28;15.10;1.00
2993;DHT22;1506;48.932;9.478;2023-04-21T10:13:00;14.60;99.90
2993;DHT22;1506;48.932;9.478;2023-04-21T10:15:33;15.90;1.00
2993;DHT22;1506;48.932;9.478;2023-04-21T10:18:15;16.60;99.90
2993;DHT22;1506;48.932;9.478;2023-04-21T10:21:11;17.10;99.90
2993;DHT22;1506;48.932;9.478;2023-04-21T10:23:44;16.90;99.90
2993;DHT22;1506;48.932;9.478;2023-04-21T10:39:32;15.30;1.00
2993;DHT22;1506;48.932;9.478;2023-04-21T10:44:43;15.30;1.00
2993;DHT22;1506;48.932;9.478;2023-04-21T10:49:39;16.80;1.00
2993;DHT22;1506;48.932;9.478;2023-04-21T10:52:07;16.20;1.00
2993;DHT22;1506;48.932;9.478;2023-04-21T10:57:17;16.30;80.10
2993;DHT22;1506;48.932;9.478;2023-04-21T10:59:46;15.90;1.00
2993;DHT22;1506;48.932;9.478;2023-04-21T11:02:17;15.70;1.00
2993;DHT22;1506;48.932;9.478;2023-04-21T11:07:21;16.40;99.90
2993;DHT22;1506;48.932;9.478;2023-04-21T11:09:58;15.40;1.00
2993;DHT22;1506;48.932;9.478;2023-04-21T11:15:01;16.20;62.80
2993;DHT22;1506;48.932;9.478;2023-04-21T11:22:32;17.10;1.00
2993;DHT22;1506;48.932;9.478;2023-04-21T11:24:59;17.60;99.90
2993;DHT22;1506;48.932;9.478;2023-04-21T11:27:28;17.20;99.90
2993;DHT22;1506;48.932;9.478;2023-04-21T11:29:56;17.50;1.00
2993;DHT22;1506;48.932;9.478;2023-04-21T11:32:23;17.20;1.00
2993;DHT22;1506;48.932;9.478;2023-04-21T11:34:50;17.40;1.00
2993;DHT22;1506;48.932;9.478;2023-04-21T11:37:23;17.30;1.00
2993;DHT22;1506;48.932;9.478;2023-04-21T11:39:57;18.00;1.00
2993;DHT22;1506;48.932;9.478;2023-04-21T11:42:25;17.90;1.00
2993;DHT22;1506;48.932;9.478;2023-04-21T11:44:56;18.60;1.00
2993;DHT22;1506;48.932;9.478;2023-04-21T11:47:25;18.90;99.90
2993;DHT22;1506;48.932;9.478;2023-04-21T11:49:58;19.10;1.00
2993;DHT22;1506;48.932;9.478;2023-04-21T11:52:32;18.80;1.00
2993;DHT22;1506;48.932;9.478;2023-04-21T11:55:12;17.80;1.00
2993;DHT22;1506;48.932;9.478;2023-04-21T12:00:14;19.40;1.00
2993;DHT22;1506;48.932;9.478;2023-04-21T12:02:42;19.30;1.00
2993;DHT22;1506;48.932;9.478;2023-04-21T12:10:20;21.40;1.00
2993;DHT22;1506;48.932;9.478;2023-04-21T12:15:19;18.90;99.90
2993;DHT22;1506;48.932;9.478;2023-04-21T12:17:53;18.80;1.00
2993;DHT22;1506;48.932;9.478;2023-04-21T12:20:22;18.20;1.00
2993;DHT22;1506;48.932;9.478;2023-04-21T12:22:50;18.20;99.90
2993;DHT22;1506;48.932;9.478;2023-04-21T12:27:56;19.30;1.00
2993;DHT22;1506;48.932;9.478;2023-04-21T12:32:51;18.00;1.00
2993;DHT22;1506;48.932;9.478;2023-04-21T12:35:21;18.60;1.00
